Senin
| Ora | Descriere | Temp | Se simte | Precipitatii | Umiditate | Vant |
|---|---|---|---|---|---|---|
| 00:00 | Senin | 10.6° | 8.9° | 0% | 81% | SSW 12.6 KM/H |
| 01:00 | Senin | 10.2° | 8.6° | 0% | 80% | SSW 12.2 KM/H |
| 02:00 | Senin | 10° | 8.3° | 0% | 79% | SW 11.5 KM/H |
| 03:00 | Senin | 9.8° | 8.4° | 0% | 76% | SW 9.7 KM/H |
| 04:00 | Senin | 9.8° | 8.8° | 0% | 74% | SW 7.9 KM/H |
| 05:00 | Senin | 9.8° | 8.9° | 0% | 73% | SSW 7.6 KM/H |
| 06:00 | Senin | 6.4° | 8.8° | 0% | 81% | S 7.9 KM/H |
| 07:00 | Senin | 10.7° | 9.8° | 0% | 72% | S 8.3 KM/H |
| 08:00 | Senin | 12.2° | 11.4° | 0% | 69% | SSE 9.4 KM/H |
| 09:00 | Senin | 13.2° | 12.3° | 0% | 67% | SSE 11.9 KM/H |
| 10:00 | Senin | 14° | 12.9° | 0% | 66% | SSE 14.4 KM/H |
| 11:00 | Senin | 14.5° | 13.4° | 0% | 65% | SSE 16.2 KM/H |
| 12:00 | Senin | 14.8° | 13.7° | 0% | 65% | SSE 16.9 KM/H |
| 13:00 | Senin | 15° | 15° | 0% | 65% | SSE 17.3 KM/H |
| 14:00 | Senin | 15.1° | 15.1° | 0% | 65% | SE 18.4 KM/H |
| 15:00 | Senin | 15° | 15.1° | 0% | 66% | SSE 18.7 KM/H |
| 16:00 | Senin | 14.9° | 13.7° | 0% | 67% | SSE 18.7 KM/H |
| 17:00 | Senin | 14.6° | 13.3° | 0% | 68% | SSE 18.4 KM/H |
| 18:00 | Senin | 14.2° | 12.9° | 0% | 70% | SSE 17.6 KM/H |
| 19:00 | Senin | 13.5° | 12.1° | 0% | 74% | SSE 16.2 KM/H |
| 20:00 | Senin | 12.2° | 10.7° | 0% | 79% | SSE 14.4 KM/H |
| 21:00 | Senin | 11.6° | 10° | 0% | 80% | SSE 13.7 KM/H |
| 22:00 | Senin | 11.3° | 9.7° | 0% | 80% | SSE 13.7 KM/H |
| 23:00 | Senin | 11.2° | 9.6° | 0% | 81% | SSE 13.7 KM/H |